Time;durP1;ratioP1;P1;durP2;ratioP2;P2;SDS_P1;SDS_P2;PMS_P1;PMS_P2;Temp;Humidity;BMP_temperature;BMP_pressure;BME280_temperature;BME280_humidity;BME280_pressure;Samples;Min_cycle;Max_cycle;Signal;HPM_P1;HPM_P2
2022/01/25 00:32:14;;;;;;;13.85;6.55;;;2.40;94.30;;;;;;10123933;28;20090;-62
2022/01/25 00:37:05;;;;;;;12.25;7.47;;;2.40;94.30;;;;;;10118971;28;20507;-62
2022/01/25 00:41:56;;;;;;;13.95;6.75;;;2.40;94.30;;;;;;10128809;28;20043;-63
2022/01/25 00:46:47;;;;;;;8.90;5.93;;;2.30;94.30;;;;;;10123647;28;20017;-63
2022/01/25 00:56:46;;;;;;;16.25;7.65;;;2.30;94.30;;;;;;10117212;28;20386;-62
2022/01/25 01:01:39;;;;;;;12.93;7.13;;;2.30;94.30;;;;;;10120689;28;20261;-65
2022/01/25 01:06:30;;;;;;;17.63;8.40;;;2.20;94.30;;;;;;10124453;28;20024;-61
2022/01/25 01:11:30;;;;;;;13.05;6.63;;;2.30;94.30;;;;;;10118225;28;20033;-61
2022/01/25 01:31:53;;;;;;;15.93;7.22;;;2.00;94.30;;;;;;10122337;28;20100;-62
2022/01/25 01:42:17;;;;;;;13.07;6.75;;;1.90;94.50;;;;;;10116189;28;20166;-63
2022/01/25 01:47:11;;;;;;;14.90;7.00;;;1.90;94.50;;;;;;10128608;28;20119;-62
2022/01/25 01:52:02;;;;;;;14.10;6.80;;;1.90;94.40;;;;;;10127516;28;20561;-61
2022/01/25 01:56:53;;;;;;;16.30;8.27;;;1.90;94.50;;;;;;10124307;28;20128;-63
2022/01/25 02:01:46;;;;;;;17.73;8.00;;;1.90;94.50;;;;;;10163560;28;20518;-63
2022/01/25 02:06:36;;;;;;;14.38;6.43;;;1.90;94.40;;;;;;10159564;28;20119;-63
2022/01/25 02:11:27;;;;;;;16.65;7.40;;;1.80;94.50;;;;;;10159989;28;20106;-63
2022/01/25 02:16:55;;;;;;;17.00;7.28;;;1.90;94.50;;;;;;10156433;28;20047;-62
2022/01/25 02:26:38;;;;;;;16.55;7.72;;;1.80;94.50;;;;;;10168182;28;20512;-64
2022/01/25 02:31:29;;;;;;;14.05;7.20;;;1.80;94.50;;;;;;10168656;28;20092;-63
2022/01/25 02:36:27;;;;;;;16.88;7.63;;;1.80;94.50;;;;;;10175533;28;20123;-62
2022/01/25 02:41:18;;;;;;;16.08;7.03;;;1.80;94.60;;;;;;10165321;28;20036;-62
2022/01/25 02:51:03;;;;;;;15.20;6.85;;;1.80;94.60;;;;;;10174964;28;20035;-62
2022/01/25 02:55:54;;;;;;;14.80;7.22;;;1.70;94.60;;;;;;10162820;28;20055;-63
2022/01/25 03:00:44;;;;;;;12.15;7.57;;;1.70;94.60;;;;;;10133936;28;20503;-63
2022/01/25 03:05:35;;;;;;;15.20;6.90;;;1.60;94.60;;;;;;10123283;28;20095;-62
2022/01/25 03:10:38;;;;;;;10.85;6.93;;;1.60;94.60;;;;;;10102130;28;20050;-63
2022/01/25 03:15:52;;;;;;;15.23;7.82;;;1.60;94.60;;;;;;10103490;28;20127;-62
2022/01/25 03:20:58;;;;;;;13.00;6.20;;;1.60;94.60;;;;;;10120236;28;20071;-63
2022/01/25 03:25:49;;;;;;;14.50;6.88;;;1.60;94.70;;;;;;10128088;28;20577;-63
2022/01/25 03:30:40;;;;;;;18.17;6.70;;;1.50;94.80;;;;;;10122569;28;20028;-63
2022/01/25 03:35:30;;;;;;;13.50;6.68;;;1.40;94.90;;;;;;10129669;28;20111;-63
2022/01/25 03:40:21;;;;;;;15.18;6.82;;;1.40;94.90;;;;;;10124688;28;20072;-63
2022/01/25 03:45:18;;;;;;;14.40;6.93;;;1.30;95.00;;;;;;10129951;28;20016;-64
2022/01/25 03:50:09;;;;;;;19.45;8.52;;;1.30;94.90;;;;;;10130302;28;20471;-63
2022/01/25 03:55:00;;;;;;;20.80;8.95;;;1.30;95.00;;;;;;10126625;28;20021;-63
2022/01/25 03:59:50;;;;;;;16.55;7.93;;;1.20;94.90;;;;;;10134037;28;20044;-62
2022/01/25 04:04:41;;;;;;;15.20;7.85;;;1.20;94.90;;;;;;10126274;28;20598;-64
2022/01/25 04:09:32;;;;;;;24.92;9.32;;;1.30;95.00;;;;;;10116793;28;20506;-62
2022/01/25 04:14:23;;;;;;;19.05;7.30;;;1.30;95.00;;;;;;10123661;28;20039;-66
2022/01/25 04:19:30;;;;;;;15.95;6.82;;;1.30;95.20;;;;;;10128171;28;20043;-63
2022/01/25 04:29:51;;;;;;;21.98;7.80;;;1.30;95.30;;;;;;9933878;28;20029;-63
2022/01/25 04:34:46;;;;;;;20.98;8.13;;;1.50;95.40;;;;;;10072255;28;20511;-63
2022/01/25 04:49:57;;;;;;;16.55;8.35;;;1.80;95.30;;;;;;10127743;28;20054;-63
2022/01/25 04:55:06;;;;;;;20.10;7.88;;;1.60;95.40;;;;;;10127190;28;20021;-63
2022/01/25 05:00:13;;;;;;;20.42;7.95;;;1.80;95.50;;;;;;10115917;28;20048;-63
2022/01/25 05:05:11;;;;;;;23.88;9.88;;;1.70;95.40;;;;;;10118556;28;20024;-63
2022/01/25 05:10:04;;;;;;;20.42;9.32;;;1.60;95.50;;;;;;10097636;28;20056;-62
2022/01/25 05:14:59;;;;;;;21.90;8.77;;;1.60;95.50;;;;;;10122663;28;20021;-62
2022/01/25 05:24:42;;;;;;;19.48;7.95;;;1.40;95.70;;;;;;10125670;28;20024;-64
2022/01/25 05:29:33;;;;;;;21.60;7.75;;;1.40;95.70;;;;;;10118647;28;20257;-63
2022/01/25 05:34:24;;;;;;;15.02;6.95;;;1.50;95.50;;;;;;10122537;28;20185;-63
2022/01/25 05:39:22;;;;;;;15.57;7.65;;;1.30;95.60;;;;;;10123877;28;20027;-62
2022/01/25 05:45:12;;;;;;;18.83;8.65;;;1.40;95.90;;;;;;10124233;28;20143;-62
2022/01/25 05:49:24;;;;;;;17.05;7.22;;;1.60;95.80;;;;;;10101529;28;20040;-63
2022/01/25 05:54:15;;;;;;;22.77;7.30;;;1.60;95.70;;;;;;10126565;28;20024;-63
2022/01/25 05:59:06;;;;;;;19.52;7.75;;;1.50;95.60;;;;;;10129972;28;20067;-65
2022/01/25 06:03:57;;;;;;;16.83;7.43;;;1.50;95.90;;;;;;10127238;28;20047;-64
2022/01/25 06:08:47;;;;;;;19.63;7.97;;;1.50;95.90;;;;;;10120562;28;20013;-65
2022/01/25 06:13:38;;;;;;;18.92;7.95;;;1.50;96.00;;;;;;10132300;28;20044;-66
2022/01/25 06:18:29;;;;;;;16.17;6.97;;;1.60;96.00;;;;;;10133639;28;20028;-68
2022/01/25 06:23:19;;;;;;;14.95;6.93;;;1.40;95.90;;;;;;10113294;28;20040;-65
2022/01/25 06:28:10;;;;;;;16.60;6.78;;;1.20;96.20;;;;;;10129743;28;20546;-66
2022/01/25 06:33:01;;;;;;;19.25;6.30;;;1.30;96.00;;;;;;10123515;28;20110;-64
2022/01/25 06:37:52;;;;;;;15.48;6.30;;;1.40;95.80;;;;;;10131083;28;20020;-64
2022/01/25 06:42:43;;;;;;;19.45;7.22;;;1.20;96.10;;;;;;10117191;28;20055;-64
2022/01/25 06:47:33;;;;;;;15.07;6.18;;;1.30;96.10;;;;;;10132120;28;20025;-66
2022/01/25 06:52:24;;;;;;;19.63;7.95;;;1.30;96.00;;;;;;10129408;28;20039;-63
2022/01/25 06:57:15;;;;;;;16.65;7.40;;;1.20;96.10;;;;;;10128248;28;20066;-66
2022/01/25 07:02:06;;;;;;;21.15;9.05;;;1.20;96.00;;;;;;10127296;28;20098;-64
2022/01/25 07:06:57;;;;;;;21.67;6.55;;;1.10;96.00;;;;;;10128873;28;20205;-63
2022/01/25 07:11:48;;;;;;;18.50;8.35;;;1.10;96.20;;;;;;10133034;28;20675;-64
2022/01/25 07:16:38;;;;;;;19.27;7.20;;;1.20;96.20;;;;;;10137062;28;20029;-65
2022/01/25 07:21:29;;;;;;;17.60;8.13;;;1.10;96.10;;;;;;10118766;28;20032;-65
2022/01/25 07:26:20;;;;;;;13.70;6.85;;;1.00;96.00;;;;;;10129733;28;20028;-65
2022/01/25 07:31:10;;;;;;;20.60;8.18;;;1.10;96.10;;;;;;10104723;28;20380;-65
2022/01/25 07:36:02;;;;;;;21.25;8.73;;;1.20;96.20;;;;;;10117910;28;20063;-61
2022/01/25 07:40:53;;;;;;;19.65;8.75;;;1.40;95.90;;;;;;10093455;28;20067;-65
2022/01/25 07:45:50;;;;;;;19.90;8.32;;;1.30;95.90;;;;;;10113830;28;20047;-66
2022/01/25 07:50:40;;;;;;;19.13;6.72;;;1.50;95.90;;;;;;10111323;28;20416;-66
2022/01/25 07:55:31;;;;;;;26.20;9.98;;;1.40;95.70;;;;;;10113179;28;20029;-62
2022/01/25 08:00:22;;;;;;;14.05;7.32;;;1.50;95.80;;;;;;10138741;28;20063;-63
2022/01/25 08:05:19;;;;;;;22.17;9.27;;;1.40;95.90;;;;;;10139872;28;20460;-63
2022/01/25 08:10:11;;;;;;;24.17;8.90;;;1.50;96.00;;;;;;10147011;28;20020;-61
2022/01/25 08:15:04;;;;;;;23.33;9.52;;;1.40;95.80;;;;;;10139838;28;20024;-61
2022/01/25 08:19:55;;;;;;;14.45;7.60;;;1.50;95.90;;;;;;10131634;28;20193;-64
2022/01/25 08:24:46;;;;;;;22.83;8.90;;;1.40;95.90;;;;;;10132488;28;20567;-62
2022/01/25 08:29:37;;;;;;;18.58;9.02;;;1.40;95.80;;;;;;10128193;28;20032;-62
2022/01/25 08:34:28;;;;;;;14.73;7.82;;;1.40;95.90;;;;;;10131349;28;20028;-64
2022/01/25 08:39:19;;;;;;;21.05;7.82;;;1.40;95.90;;;;;;10126995;28;20463;-66
2022/01/25 08:44:10;;;;;;;19.65;7.95;;;1.50;95.80;;;;;;10126745;28;20040;-63
2022/01/25 08:49:02;;;;;;;20.05;8.80;;;1.60;96.00;;;;;;10121533;28;20123;-66
2022/01/25 08:53:53;;;;;;;20.88;8.90;;;1.80;95.80;;;;;;10117588;28;20044;-62
2022/01/25 08:58:44;;;;;;;21.88;9.73;;;1.90;95.90;;;;;;10106534;28;20082;-65
2022/01/25 09:03:36;;;;;;;18.08;9.23;;;2.00;95.70;;;;;;10124588;28;20039;-65
2022/01/25 09:08:29;;;;;;;23.25;9.70;;;1.80;95.90;;;;;;10126131;28;20213;-66
2022/01/25 09:13:19;;;;;;;22.35;9.90;;;2.00;95.80;;;;;;10126395;28;20056;-68
2022/01/25 09:18:12;;;;;;;27.42;10.25;;;2.00;96.00;;;;;;10133783;28;20032;-65
2022/01/25 09:23:03;;;;;;;25.42;10.35;;;2.10;95.90;;;;;;10131399;28;20663;-65
2022/01/25 09:27:54;;;;;;;20.25;9.98;;;2.20;95.80;;;;;;10129787;28;20021;-65
2022/01/25 09:32:46;;;;;;;22.75;11.35;;;2.40;95.70;;;;;;10124707;28;20021;-67
2022/01/25 09:37:36;;;;;;;26.00;10.77;;;2.40;95.70;;;;;;10133930;28;20012;-64
2022/01/25 09:42:29;;;;;;;28.02;12.32;;;2.80;95.70;;;;;;10126931;28;20036;-65
2022/01/25 09:47:20;;;;;;;23.75;11.40;;;2.70;95.50;;;;;;10107451;28;20033;-65
2022/01/25 09:52:11;;;;;;;17.55;8.80;;;2.30;95.80;;;;;;10130365;28;20051;-66
2022/01/25 09:57:04;;;;;;;24.90;8.63;;;2.30;95.80;;;;;;10127955;28;20032;-65
2022/01/25 10:01:55;;;;;;;16.45;8.27;;;2.20;95.80;;;;;;10128119;28;20028;-65
2022/01/25 10:06:49;;;;;;;19.50;10.05;;;1.90;95.80;;;;;;10136986;28;20028;-64
2022/01/25 10:11:40;;;;;;;23.23;9.43;;;2.10;96.00;;;;;;10126344;28;20104;-62
2022/01/25 10:16:33;;;;;;;22.55;9.60;;;2.20;95.90;;;;;;10123978;28;20108;-63
2022/01/25 10:21:36;;;;;;;33.95;13.48;;;2.50;95.70;;;;;;10125066;28;20047;-63
2022/01/25 10:26:30;;;;;;;25.70;11.95;;;2.20;95.50;;;;;;10132967;28;20081;-64
2022/01/25 10:31:21;;;;;;;21.52;12.45;;;2.10;95.80;;;;;;10138095;28;20040;-66
2022/01/25 10:36:19;;;;;;;30.98;12.38;;;2.00;95.70;;;;;;10134936;28;20012;-62
2022/01/25 10:41:14;;;;;;;19.92;9.70;;;2.00;95.70;;;;;;10125265;28;20081;-63
2022/01/25 10:46:11;;;;;;;22.03;7.60;;;2.10;95.50;;;;;;10139081;28;20498;-64
2022/01/25 10:51:05;;;;;;;15.73;8.85;;;2.20;95.50;;;;;;10131160;28;20143;-63
2022/01/25 10:55:59;;;;;;;14.65;8.07;;;2.50;95.30;;;;;;10134973;28;20021;-64
2022/01/25 11:00:51;;;;;;;24.58;9.30;;;2.50;95.20;;;;;;10133869;28;20482;-62
2022/01/25 11:05:43;;;;;;;21.40;10.93;;;2.80;95.20;;;;;;10131898;28;20128;-66
2022/01/25 11:10:34;;;;;;;24.75;11.20;;;2.90;94.80;;;;;;10142316;28;20032;-62
2022/01/25 11:15:25;;;;;;;28.52;12.88;;;2.90;94.90;;;;;;10131472;28;20031;-62
2022/01/25 11:20:16;;;;;;;21.90;9.02;;;2.80;95.00;;;;;;10131235;28;20124;-59
2022/01/25 11:25:07;;;;;;;20.40;7.93;;;2.90;95.10;;;;;;10112649;28;20395;-61
2022/01/25 11:30:05;;;;;;;21.58;9.73;;;3.10;94.80;;;;;;10114795;28;20390;-64
2022/01/25 11:34:57;;;;;;;28.83;11.45;;;3.20;94.90;;;;;;10126081;28;20033;-61
2022/01/25 11:39:49;;;;;;;26.88;13.02;;;3.20;94.80;;;;;;10130419;28;20158;-64
2022/01/25 11:44:52;;;;;;;30.50;12.15;;;3.30;94.70;;;;;;10139134;28;20090;-64
2022/01/25 11:49:58;;;;;;;26.60;12.38;;;3.40;94.80;;;;;;10133464;28;20086;-61
2022/01/25 11:54:51;;;;;;;23.55;11.88;;;3.60;94.60;;;;;;10122332;28;20025;-61
2022/01/25 11:59:49;;;;;;;26.00;11.63;;;3.40;94.50;;;;;;10133508;28;20040;-63
2022/01/25 12:04:45;;;;;;;21.00;10.25;;;3.50;94.60;;;;;;10126020;28;20032;-62
2022/01/25 12:09:52;;;;;;;22.63;11.45;;;3.70;94.50;;;;;;10126469;28;20028;-64
2022/01/25 12:14:49;;;;;;;29.33;13.25;;;3.70;94.50;;;;;;10133172;28;20263;-69
2022/01/25 12:19:56;;;;;;;25.08;12.20;;;3.80;94.50;;;;;;10126904;28;20021;-70
2022/01/25 12:25:18;;;;;;;28.08;12.20;;;3.90;94.40;;;;;;10132243;28;20044;-65
2022/01/25 12:30:12;;;;;;;25.17;11.93;;;4.10;94.30;;;;;;10123667;28;20098;-66
2022/01/25 12:35:08;;;;;;;25.20;10.82;;;4.30;94.20;;;;;;10131991;28;20029;-64
2022/01/25 12:40:23;;;;;;;23.92;11.35;;;4.40;94.00;;;;;;10128149;28;20089;-71
2022/01/25 12:45:17;;;;;;;22.73;10.93;;;4.60;93.80;;;;;;10130721;28;20025;-70
2022/01/25 12:50:08;;;;;;;27.75;11.95;;;4.60;93.80;;;;;;10132585;28;20036;-63
2022/01/25 12:54:59;;;;;;;25.75;11.52;;;4.70;93.80;;;;;;10135401;28;20555;-61
2022/01/25 12:59:51;;;;;;;28.17;14.25;;;4.70;93.70;;;;;;10140484;28;20122;-67
2022/01/25 13:04:41;;;;;;;32.08;13.57;;;4.70;93.80;;;;;;10129167;28;20210;-61
2022/01/25 13:09:40;;;;;;;35.85;13.90;;;4.50;93.70;;;;;;10125149;28;20025;-61
2022/01/25 13:19:38;;;;;;;30.80;14.52;;;4.30;94.20;;;;;;10127405;28;20024;-61
2022/01/25 13:24:33;;;;;;;36.08;15.02;;;4.40;94.10;;;;;;10119992;28;20037;-64
2022/01/25 13:34:38;;;;;;;27.92;12.93;;;4.70;93.80;;;;;;10121284;28;20030;-65
2022/01/25 13:39:30;;;;;;;32.15;16.17;;;4.70;93.70;;;;;;10123317;28;20127;-65
2022/01/25 13:49:32;;;;;;;34.50;13.90;;;4.40;93.80;;;;;;10131663;28;20090;-64
2022/01/25 13:54:25;;;;;;;28.92;13.30;;;4.30;93.90;;;;;;10130239;28;20040;-63
2022/01/25 13:59:17;;;;;;;30.73;13.60;;;4.30;93.80;;;;;;10133058;28;20561;-63
2022/01/25 14:04:21;;;;;;;36.10;15.43;;;4.40;93.80;;;;;;10127738;28;20106;-64
2022/01/25 14:09:26;;;;;;;29.33;11.77;;;4.30;93.70;;;;;;10131247;28;20028;-61
2022/01/25 14:24:54;;;;;;;30.80;12.60;;;4.20;93.80;;;;;;10141114;28;20059;-63
2022/01/25 14:29:45;;;;;;;31.45;12.95;;;4.30;93.80;;;;;;10116850;28;20459;-64
2022/01/25 14:34:36;;;;;;;24.92;14.05;;;4.20;93.80;;;;;;10135230;28;20115;-64
2022/01/25 14:39:27;;;;;;;27.42;12.75;;;4.00;93.90;;;;;;10138693;28;20398;-62
2022/01/25 14:44:25;;;;;;;25.52;12.82;;;4.00;94.00;;;;;;10142073;28;20560;-63
2022/01/25 14:49:21;;;;;;;30.30;11.88;;;3.90;93.90;;;;;;10133232;28;20067;-64
2022/01/25 14:54:21;;;;;;;27.48;13.73;;;4.00;93.80;;;;;;10143879;28;20334;-64
2022/01/25 14:59:28;;;;;;;22.10;10.57;;;3.90;93.80;;;;;;10136359;28;20097;-64
2022/01/25 15:04:19;;;;;;;32.05;11.18;;;4.00;93.80;;;;;;10141888;28;20510;-61
2022/01/25 15:09:10;;;;;;;29.70;10.20;;;4.00;93.80;;;;;;10140017;28;20088;-65
2022/01/25 15:14:09;;;;;;;24.98;11.55;;;3.90;93.90;;;;;;10131337;28;20043;-63
2022/01/25 15:19:00;;;;;;;22.02;12.05;;;3.80;94.00;;;;;;10131615;28;20028;-64
2022/01/25 15:23:51;;;;;;;26.40;11.48;;;3.80;94.00;;;;;;10130827;28;20067;-61
2022/01/25 15:28:45;;;;;;;24.83;11.82;;;3.70;94.10;;;;;;10135607;28;20112;-65
2022/01/25 15:33:35;;;;;;;24.73;10.18;;;3.80;93.90;;;;;;10137089;28;20038;-66
2022/01/25 15:38:26;;;;;;;27.85;10.90;;;3.60;93.90;;;;;;10127884;28;20132;-63
2022/01/25 15:43:23;;;;;;;27.48;12.85;;;3.60;94.00;;;;;;10138418;28;20045;-65
2022/01/25 15:48:13;;;;;;;24.60;13.00;;;3.50;94.00;;;;;;10135406;28;20033;-66
2022/01/25 15:53:04;;;;;;;24.25;12.18;;;3.40;94.00;;;;;;10136418;28;20485;-65
2022/01/25 15:57:55;;;;;;;28.35;13.02;;;3.30;94.20;;;;;;10132539;28;20037;-67
2022/01/25 16:02:45;;;;;;;25.50;10.45;;;3.20;94.10;;;;;;10139290;28;20043;-67
2022/01/25 16:07:36;;;;;;;21.15;9.68;;;2.90;94.60;;;;;;10129807;28;20580;-64
2022/01/25 16:12:27;;;;;;;23.67;11.00;;;2.60;95.20;;;;;;10130358;28;20040;-67
2022/01/25 16:17:18;;;;;;;30.95;13.73;;;2.40;95.60;;;;;;10137644;28;20473;-65
2022/01/25 16:22:09;;;;;;;30.45;12.55;;;2.40;95.00;;;;;;10128657;28;20494;-67
2022/01/25 16:26:59;;;;;;;24.27;9.48;;;2.60;95.10;;;;;;10106958;28;20020;-65
2022/01/25 16:31:52;;;;;;;29.10;12.98;;;2.60;95.60;;;;;;10126316;28;20025;-62
2022/01/25 16:36:43;;;;;;;24.30;11.02;;;2.30;95.50;;;;;;10127854;28;20020;-65
2022/01/25 16:41:34;;;;;;;23.83;11.35;;;2.30;95.50;;;;;;10130692;28;20135;-64
2022/01/25 16:46:25;;;;;;;23.48;10.05;;;2.30;95.40;;;;;;10129794;28;20144;-66
2022/01/25 16:51:16;;;;;;;18.48;9.73;;;2.40;95.50;;;;;;10123864;28;20075;-64
2022/01/25 16:56:07;;;;;;;25.60;10.93;;;2.40;95.60;;;;;;10130623;28;20079;-62
2022/01/25 17:00:59;;;;;;;23.25;8.35;;;2.50;95.50;;;;;;10122544;28;20461;-67
2022/01/25 17:05:50;;;;;;;17.20;8.57;;;2.30;95.60;;;;;;10130251;28;20051;-67
2022/01/25 17:10:41;;;;;;;23.33;8.80;;;2.10;96.20;;;;;;10138669;28;20513;-67
2022/01/25 17:15:32;;;;;;;22.30;9.02;;;2.00;96.30;;;;;;10123915;28;20031;-65
2022/01/25 17:20:24;;;;;;;21.00;9.13;;;2.00;96.30;;;;;;10135519;28;20130;-65
2022/01/25 17:25:15;;;;;;;25.92;10.55;;;2.00;96.20;;;;;;10129446;28;20017;-60
2022/01/25 17:30:08;;;;;;;35.13;12.40;;;2.10;96.30;;;;;;10132492;28;20096;-62
2022/01/25 17:34:59;;;;;;;25.40;10.02;;;2.30;96.00;;;;;;10131916;28;20035;-65
2022/01/25 17:39:49;;;;;;;26.75;10.40;;;2.30;96.00;;;;;;10129423;28;20478;-63
2022/01/25 17:44:40;;;;;;;21.85;9.07;;;2.20;96.40;;;;;;10121360;28;20041;-64
2022/01/25 17:49:31;;;;;;;23.02;8.30;;;2.10;96.40;;;;;;10128954;28;20337;-63
2022/01/25 17:54:22;;;;;;;23.67;9.88;;;2.00;96.60;;;;;;10142017;28;20491;-65
2022/01/25 17:59:13;;;;;;;20.20;8.60;;;2.10;96.60;;;;;;10145286;28;20047;-67
2022/01/25 18:04:04;;;;;;;21.45;8.90;;;2.10;96.60;;;;;;10136597;28;20040;-66
2022/01/25 18:08:55;;;;;;;22.77;11.45;;;2.10;96.50;;;;;;10131922;28;20082;-64
2022/01/25 18:13:45;;;;;;;27.60;10.93;;;2.00;96.50;;;;;;10135268;28;20388;-64
2022/01/25 18:18:36;;;;;;;28.80;10.55;;;2.00;96.30;;;;;;10129707;28;20028;-68
2022/01/25 18:23:31;;;;;;;20.75;10.93;;;2.10;96.30;;;;;;10125738;28;20093;-64
2022/01/25 18:28:26;;;;;;;26.75;10.27;;;2.10;96.30;;;;;;10125686;28;20571;-63
2022/01/25 18:33:18;;;;;;;30.58;11.57;;;2.20;96.40;;;;;;10125074;28;20036;-63
2022/01/25 18:38:08;;;;;;;22.23;9.07;;;2.40;96.20;;;;;;10124969;28;20453;-63
2022/01/25 18:43:00;;;;;;;27.45;10.57;;;2.30;96.30;;;;;;10134965;28;20025;-64
2022/01/25 18:47:51;;;;;;;31.38;11.52;;;2.10;96.60;;;;;;10136142;28;20029;-61
2022/01/25 18:52:42;;;;;;;24.55;10.25;;;2.00;96.50;;;;;;10131098;28;20033;-68
2022/01/25 18:57:32;;;;;;;26.73;10.15;;;1.90;97.20;;;;;;10136266;28;20040;-67
2022/01/25 19:02:35;;;;;;;34.08;10.90;;;2.00;97.00;;;;;;10104692;28;20142;-61
2022/01/25 19:07:26;;;;;;;28.73;11.73;;;2.10;96.70;;;;;;10129082;28;20068;-63
2022/01/25 19:12:17;;;;;;;27.08;12.15;;;2.10;96.40;;;;;;10127873;28;20536;-65
2022/01/25 19:17:08;;;;;;;29.38;11.73;;;2.10;96.50;;;;;;10136257;28;20047;-66
2022/01/25 19:21:58;;;;;;;24.23;10.55;;;2.10;96.40;;;;;;10124799;28;20029;-61
2022/01/25 19:26:49;;;;;;;30.40;11.80;;;2.20;96.60;;;;;;10142273;28;20502;-65
2022/01/25 19:31:40;;;;;;;39.20;14.40;;;2.10;96.50;;;;;;10109509;28;20044;-63
2022/01/25 19:36:31;;;;;;;29.00;11.27;;;2.00;96.40;;;;;;10132975;28;20033;-61
2022/01/25 19:41:22;;;;;;;30.92;12.80;;;2.00;96.60;;;;;;10136049;28;20441;-64
2022/01/25 19:46:13;;;;;;;36.33;12.77;;;2.00;96.50;;;;;;10131117;28;20103;-63
2022/01/25 19:51:06;;;;;;;26.30;10.82;;;2.10;96.30;;;;;;10134333;28;20078;-64
2022/01/25 19:56:00;;;;;;;28.42;10.27;;;2.20;96.40;;;;;;10132705;28;20043;-62
2022/01/25 20:00:50;;;;;;;27.25;11.30;;;2.30;96.30;;;;;;10127840;28;20132;-63
2022/01/25 20:05:41;;;;;;;32.42;11.80;;;2.30;96.40;;;;;;10133812;28;20111;-66
2022/01/25 20:10:37;;;;;;;33.35;12.63;;;2.10;96.60;;;;;;10133914;28;20017;-64
2022/01/25 20:15:27;;;;;;;37.65;13.27;;;2.10;96.70;;;;;;10124390;28;20415;-63
2022/01/25 20:20:35;;;;;;;28.48;11.48;;;2.20;96.60;;;;;;10133963;28;20060;-67
2022/01/25 20:30:34;;;;;;;30.80;11.10;;;2.00;97.00;;;;;;10139674;28;20052;-64
2022/01/25 20:35:27;;;;;;;24.40;10.33;;;2.10;96.80;;;;;;10136929;28;20028;-63
2022/01/25 20:40:18;;;;;;;24.48;10.23;;;2.20;96.50;;;;;;10116679;28;20137;-65
2022/01/25 20:45:09;;;;;;;29.38;11.18;;;2.10;96.60;;;;;;10128908;28;20155;-67
2022/01/25 20:50:01;;;;;;;30.00;11.60;;;2.10;96.40;;;;;;10131499;28;20119;-62
2022/01/25 20:54:54;;;;;;;35.95;12.32;;;2.10;96.70;;;;;;10104028;28;20029;-62
2022/01/25 20:59:45;;;;;;;26.65;11.63;;;2.20;96.50;;;;;;10129430;28;20067;-67
2022/01/25 21:09:46;;;;;;;29.55;10.95;;;2.20;96.60;;;;;;10140014;28;20115;-63
2022/01/25 21:14:36;;;;;;;30.15;10.20;;;2.30;96.40;;;;;;10128099;28;20135;-60
2022/01/25 21:19:30;;;;;;;27.45;10.13;;;2.10;96.50;;;;;;10124090;28;20128;-65
2022/01/25 21:24:22;;;;;;;27.17;10.55;;;2.10;96.90;;;;;;10116529;28;20506;-66
2022/01/25 21:29:12;;;;;;;27.10;9.80;;;2.00;96.80;;;;;;10124504;28;20031;-67
2022/01/25 21:34:03;;;;;;;30.92;11.60;;;2.00;96.70;;;;;;10121082;28;20035;-64
2022/01/25 21:38:54;;;;;;;33.20;12.65;;;2.30;96.70;;;;;;10118284;28;20024;-62
2022/01/25 21:43:45;;;;;;;26.05;10.07;;;2.30;96.40;;;;;;10122912;28;20056;-67
2022/01/25 21:48:36;;;;;;;31.80;10.82;;;2.10;96.70;;;;;;10116875;28;20021;-62
2022/01/25 21:53:28;;;;;;;24.88;9.50;;;2.10;96.80;;;;;;10124818;28;20029;-65
2022/01/25 21:58:23;;;;;;;28.27;10.15;;;2.00;97.00;;;;;;10138262;28;20146;-66
2022/01/25 22:08:14;;;;;;;25.73;9.93;;;2.00;97.10;;;;;;10161045;28;20040;-64
2022/01/25 22:13:09;;;;;;;31.63;10.80;;;2.10;96.90;;;;;;10154227;28;20020;-66
2022/01/25 22:18:00;;;;;;;23.88;9.30;;;2.00;97.00;;;;;;10162919;28;20154;-67
2022/01/25 22:22:51;;;;;;;32.63;12.05;;;1.80;97.00;;;;;;10164874;28;20565;-67
2022/01/25 22:27:43;;;;;;;26.90;9.80;;;1.40;96.80;;;;;;10168571;28;20565;-64
2022/01/25 22:32:34;;;;;;;26.75;9.35;;;1.50;97.20;;;;;;10157665;28;20350;-65
2022/01/25 22:37:25;;;;;;;21.05;8.80;;;1.50;97.10;;;;;;10165566;28;20494;-66
2022/01/25 22:42:17;;;;;;;28.23;10.00;;;1.60;97.30;;;;;;10162709;28;20078;-66
2022/01/25 22:47:13;;;;;;;20.55;8.65;;;1.60;97.20;;;;;;10171216;28;20367;-65
2022/01/25 22:52:03;;;;;;;35.10;9.23;;;1.70;97.40;;;;;;10169009;28;20472;-64
2022/01/25 22:56:54;;;;;;;19.73;8.23;;;1.50;97.40;;;;;;10158070;28;20082;-65
2022/01/25 23:01:47;;;;;;;18.23;7.68;;;1.60;97.50;;;;;;10134180;28;20567;-68
2022/01/25 23:06:37;;;;;;;18.10;7.35;;;1.60;97.50;;;;;;10128142;28;20029;-66
2022/01/25 23:11:28;;;;;;;25.27;9.07;;;1.50;97.90;;;;;;10123091;28;20497;-65
2022/01/25 23:16:42;;;;;;;24.35;8.32;;;1.40;97.70;;;;;;10124742;28;20058;-65
2022/01/25 23:21:31;;;;;;;24.98;9.48;;;1.50;97.60;;;;;;10135017;28;20468;-63
2022/01/25 23:26:23;;;;;;;21.98;8.02;;;1.60;97.40;;;;;;10109034;28;20616;-66
2022/01/25 23:36:34;;;;;;;23.55;8.30;;;1.40;97.70;;;;;;10125552;28;20575;-65
2022/01/25 23:41:32;;;;;;;23.05;8.30;;;1.40;97.50;;;;;;10133346;28;20041;-64
2022/01/25 23:46:35;;;;;;;20.55;7.53;;;1.50;97.40;;;;;;10127371;28;20427;-67
